createdAt,value
2023-05-02T00:00:57.168Z,56.85
2023-05-02T00:03:30.156Z,56.97
2023-05-02T00:06:08.662Z,57.34
2023-05-02T00:08:43.821Z,57.20
2023-05-02T00:11:16.937Z,57.70
2023-05-02T00:13:49.855Z,57.46
2023-05-02T00:16:22.919Z,57.40
2023-05-02T00:18:57.981Z,57.45
2023-05-02T00:21:42.119Z,57.51
2023-05-02T00:24:15.517Z,57.53
2023-05-02T00:26:48.903Z,57.76
2023-05-02T00:29:22.019Z,57.82
2023-05-02T00:31:57.577Z,57.60
2023-05-02T00:34:31.561Z,57.30
2023-05-02T00:37:06.370Z,58.05
2023-05-02T00:39:41.783Z,58.51
2023-05-02T00:42:14.655Z,58.46
2023-05-02T00:44:47.660Z,58.29
2023-05-02T00:47:21.032Z,58.45
2023-05-02T00:49:54.118Z,58.41
2023-05-02T00:52:30.206Z,58.35
2023-05-02T00:55:03.805Z,58.30
2023-05-02T00:57:36.839Z,58.38
2023-05-02T01:00:16.222Z,58.20
2023-05-02T01:02:54.292Z,58.43
2023-05-02T01:05:35.099Z,58.56
2023-05-02T01:08:26.053Z,58.55
2023-05-02T01:11:07.083Z,58.63
2023-05-02T01:13:41.914Z,58.47
2023-05-02T01:16:18.647Z,58.76
2023-05-02T01:18:52.525Z,58.92
2023-05-02T01:21:29.698Z,58.62
2023-05-02T01:24:12.222Z,58.89
2023-05-02T01:26:53.651Z,58.93
2023-05-02T01:29:30.168Z,58.99
2023-05-02T01:32:04.255Z,58.82
2023-05-02T01:34:39.612Z,58.93
2023-05-02T01:37:14.562Z,58.59
2023-05-02T01:39:49.477Z,58.83
2023-05-02T01:42:23.748Z,58.80
2023-05-02T01:45:00.929Z,58.75
2023-05-02T01:47:36.611Z,58.13
2023-05-02T01:50:13.024Z,58.77
2023-05-02T01:52:47.881Z,58.73
2023-05-02T01:55:21.180Z,58.91
2023-05-02T01:57:57.814Z,59.02
2023-05-02T02:00:34.142Z,58.70
2023-05-02T02:03:08.497Z,58.71
2023-05-02T02:05:42.213Z,58.60
2023-05-02T02:08:14.950Z,58.81
2023-05-02T02:10:55.010Z,58.70
2023-05-02T02:13:33.835Z,58.74
2023-05-02T02:16:13.781Z,58.58
2023-05-02T02:18:47.029Z,58.81
2023-05-02T02:21:21.692Z,58.79
2023-05-02T02:23:58.485Z,58.66
2023-05-02T02:26:31.479Z,58.33
2023-05-02T02:29:04.569Z,58.54
2023-05-02T02:31:39.823Z,58.68
2023-05-02T02:34:14.121Z,58.65
2023-05-02T02:36:51.383Z,58.66
2023-05-02T02:39:36.945Z,58.38
2023-05-02T02:42:15.496Z,58.54
2023-05-02T02:45:02.667Z,58.73
2023-05-02T02:47:43.406Z,58.09
2023-05-02T02:50:22.594Z,58.55
2023-05-02T02:53:00.194Z,58.26
2023-05-02T02:55:41.582Z,58.33
2023-05-02T02:58:24.567Z,58.40
2023-05-02T03:00:58.149Z,58.48
2023-05-02T03:03:34.644Z,58.75
2023-05-02T03:06:08.307Z,58.86
2023-05-02T03:08:41.484Z,58.57
2023-05-02T03:11:17.670Z,58.64
2023-05-02T03:13:50.542Z,58.25
2023-05-02T03:16:35.240Z,58.35
2023-05-02T03:19:10.539Z,58.25
2023-05-02T03:21:43.781Z,58.19
2023-05-02T03:24:27.558Z,58.11
2023-05-02T03:27:00.798Z,58.34
2023-05-02T03:29:39.149Z,58.33
2023-05-02T03:32:12.051Z,58.32
2023-05-02T03:34:51.421Z,57.71
2023-05-02T03:37:24.778Z,58.22
2023-05-02T03:43:14.739Z,58.07
2023-05-02T03:45:48.785Z,57.69
2023-05-02T03:48:22.967Z,58.34
2023-05-02T03:50:57.394Z,57.97
2023-05-02T03:53:33.982Z,57.93
2023-05-02T03:56:08.028Z,58.10
2023-05-02T03:58:50.575Z,58.14
2023-05-02T04:01:28.631Z,57.80
2023-05-02T04:04:06.364Z,57.89
2023-05-02T04:06:45.026Z,57.98
2023-05-02T04:09:19.563Z,57.95
2023-05-02T04:12:00.184Z,57.99
2023-05-02T04:14:33.834Z,58.33
2023-05-02T04:17:06.734Z,57.98
2023-05-02T04:19:45.176Z,57.58
2023-05-02T04:22:22.383Z,57.66
2023-05-02T04:24:59.230Z,57.94
2023-05-02T04:27:33.304Z,57.82
2023-05-02T04:30:07.689Z,57.61
2023-05-02T04:32:40.974Z,57.84
2023-05-02T04:35:15.695Z,58.10
2023-05-02T04:37:50.311Z,58.27
2023-05-02T04:40:24.260Z,57.81
2023-05-02T04:43:04.928Z,57.92
2023-05-02T04:45:45.607Z,57.95
2023-05-02T04:48:25.279Z,58.09
2023-05-02T04:50:59.006Z,57.90
2023-05-02T04:53:34.934Z,57.45
2023-05-02T04:56:08.860Z,57.84
2023-05-02T04:58:43.715Z,57.81
2023-05-02T05:01:18.605Z,57.50
2023-05-02T05:03:52.809Z,57.41
2023-05-02T05:06:26.447Z,57.22
2023-05-02T05:09:02.546Z,57.25
2023-05-02T05:11:35.559Z,57.56
2023-05-02T05:14:08.852Z,57.44
2023-05-02T05:16:44.657Z,57.56
2023-05-02T05:19:19.163Z,57.55
2023-05-02T05:21:52.385Z,57.25
2023-05-02T05:24:27.275Z,57.05
2023-05-02T05:27:02.565Z,56.89
2023-05-02T05:29:35.137Z,56.77
2023-05-02T05:32:08.010Z,56.73
2023-05-02T05:34:43.780Z,56.43
2023-05-02T05:37:18.070Z,56.49
2023-05-02T05:39:53.319Z,56.50
2023-05-02T05:42:28.203Z,56.25
2023-05-02T05:45:07.002Z,56.34
2023-05-02T05:47:40.611Z,56.42
2023-05-02T05:50:16.362Z,56.50
2023-05-02T05:52:50.978Z,56.49
2023-05-02T05:55:25.902Z,56.37
2023-05-02T05:57:59.157Z,56.16
2023-05-02T06:00:32.351Z,55.82
2023-05-02T06:03:08.140Z,56.08
2023-05-02T06:05:42.786Z,55.80
2023-05-02T06:08:16.426Z,55.73
2023-05-02T06:10:50.894Z,56.11
2023-05-02T06:13:23.987Z,56.19
2023-05-02T06:16:01.964Z,55.73
2023-05-02T06:18:35.939Z,54.84
2023-05-02T06:21:08.824Z,55.35
2023-05-02T06:23:41.724Z,55.43
2023-05-02T06:26:17.317Z,54.45
2023-05-02T06:28:50.647Z,53.63
2023-05-02T06:31:32.751Z,54.36
2023-05-02T06:34:07.298Z,53.37
2023-05-02T06:36:40.179Z,52.91
2023-05-02T06:39:13.356Z,52.88
2023-05-02T06:42:36.664Z,50.61
2023-05-02T06:45:37.507Z,52.43
2023-05-02T06:48:47.376Z,50.24
2023-05-02T06:51:33.825Z,50.12
2023-05-02T06:54:18.786Z,50.57
2023-05-02T06:57:07.088Z,49.83
2023-05-02T06:59:54.545Z,48.65
2023-05-02T07:02:28.051Z,50.19
2023-05-02T07:05:36.517Z,49.50
2023-05-02T07:25:56.421Z,51.98
2023-05-02T07:28:35.641Z,52.56
2023-05-02T07:31:10.524Z,51.44
2023-05-02T07:33:45.308Z,50.43
2023-05-02T07:36:19.169Z,50.68
2023-05-02T07:38:58.752Z,49.82
2023-05-02T07:41:37.903Z,50.68
2023-05-02T07:44:30.876Z,51.72
2023-05-02T07:47:17.769Z,50.60
2023-05-02T07:49:55.050Z,51.04
2023-05-02T07:52:57.240Z,50.41
2023-05-02T07:59:10.212Z,48.80
2023-05-02T08:02:31.109Z,49.92
2023-05-02T08:05:06.867Z,48.35
2023-05-02T08:07:42.520Z,48.93
2023-05-02T08:10:15.763Z,46.17
2023-05-02T08:12:53.222Z,48.74
2023-05-02T08:15:27.804Z,46.39
2023-05-02T08:18:05.027Z,47.19
2023-05-02T08:20:38.763Z,46.93
2023-05-02T08:23:23.503Z,47.64
2023-05-02T08:26:01.119Z,46.16
2023-05-02T08:28:34.302Z,45.81
2023-05-02T08:31:08.925Z,46.54
2023-05-02T08:33:42.323Z,44.99
2023-05-02T08:36:16.836Z,43.20
2023-05-02T08:38:49.862Z,47.80
2023-05-02T08:41:23.512Z,46.82
2023-05-02T08:43:58.041Z,46.77
2023-05-02T08:46:33.169Z,46.39
2023-05-02T08:49:07.524Z,47.80
2023-05-02T08:51:42.334Z,46.89
2023-05-02T08:54:18.256Z,49.16
2023-05-02T08:56:51.106Z,47.95
2023-05-02T08:59:23.944Z,45.75
2023-05-02T09:02:06.199Z,47.61
2023-05-02T09:04:43.084Z,47.78
2023-05-02T09:07:16.150Z,47.90
2023-05-02T09:09:48.872Z,48.85
2023-05-02T09:12:26.540Z,47.37
2023-05-02T09:15:13.132Z,48.03
2023-05-02T09:17:48.879Z,46.83
2023-05-02T09:20:23.653Z,47.68
2023-05-02T09:22:59.693Z,46.18
2023-05-02T09:25:37.745Z,47.39
2023-05-02T09:28:10.543Z,46.19
2023-05-02T09:30:43.853Z,46.79
2023-05-02T09:33:27.970Z,46.58
2023-05-02T09:36:00.780Z,48.54
2023-05-02T09:38:34.176Z,45.77
2023-05-02T09:41:07.068Z,46.05
2023-05-02T09:43:39.773Z,47.34
2023-05-02T09:46:12.759Z,46.71
2023-05-02T09:48:54.786Z,45.77
2023-05-02T09:51:27.497Z,45.38
2023-05-02T09:54:00.500Z,45.44
2023-05-02T09:56:33.457Z,46.09
2023-05-02T09:59:14.884Z,44.72
2023-05-02T10:01:56.637Z,45.49
2023-05-02T10:04:32.603Z,46.67
2023-05-02T10:07:06.651Z,46.05
2023-05-02T10:09:44.102Z,44.56
2023-05-02T10:12:17.575Z,43.19
2023-05-02T10:14:56.405Z,44.02
2023-05-02T10:17:32.494Z,44.70
2023-05-02T10:20:08.426Z,43.46
2023-05-02T10:22:42.301Z,43.25
2023-05-02T10:25:15.689Z,43.47
2023-05-02T10:27:49.285Z,42.91
2023-05-02T10:30:22.200Z,42.87
2023-05-02T10:33:01.617Z,42.97
2023-05-02T10:35:42.310Z,45.40
2023-05-02T10:38:22.315Z,42.63
2023-05-02T10:41:03.017Z,44.36
2023-05-02T10:43:40.901Z,42.85
2023-05-02T10:46:43.315Z,42.43
2023-05-02T10:49:16.873Z,42.87
2023-05-02T10:51:54.634Z,43.02
2023-05-02T10:54:27.446Z,42.29
2023-05-02T10:57:07.742Z,42.87
2023-05-02T10:59:41.608Z,42.72
2023-05-02T11:02:51.752Z,42.91
2023-05-02T11:05:25.329Z,42.56
2023-05-02T11:08:31.549Z,42.02
2023-05-02T11:11:45.855Z,41.75
2023-05-02T11:14:50.036Z,42.30
2023-05-02T11:17:23.425Z,41.72
2023-05-02T11:20:29.822Z,41.46
2023-05-02T11:23:22.877Z,42.18
2023-05-02T11:25:57.312Z,41.20
2023-05-02T11:28:48.304Z,41.50
2023-05-02T11:31:56.681Z,41.68
2023-05-02T11:34:30.045Z,42.35
2023-05-02T11:37:12.615Z,41.36
2023-05-02T11:39:46.686Z,41.91
2023-05-02T11:42:29.923Z,41.89
2023-05-02T11:45:02.951Z,42.33
2023-05-02T11:47:37.690Z,41.90
2023-05-02T11:50:11.465Z,42.08
2023-05-02T11:52:46.405Z,40.65
2023-05-02T11:55:19.163Z,40.97
2023-05-02T11:57:52.174Z,41.31
2023-05-02T12:00:29.119Z,41.23
2023-05-02T12:03:03.551Z,41.17
2023-05-02T12:05:36.820Z,40.42
2023-05-02T12:08:19.676Z,40.46
2023-05-02T12:10:54.068Z,41.93
2023-05-02T12:13:27.784Z,41.42
2023-05-02T12:16:01.919Z,40.66
2023-05-02T12:18:36.412Z,42.35
2023-05-02T12:21:09.987Z,40.75
2023-05-02T12:23:43.037Z,40.31
2023-05-02T12:26:19.740Z,41.03
2023-05-02T12:28:54.684Z,40.32
2023-05-02T12:31:31.103Z,41.57
2023-05-02T12:34:05.776Z,41.40
2023-05-02T12:36:45.386Z,41.34
2023-05-02T12:39:18.146Z,40.95
2023-05-02T12:41:51.552Z,40.08
2023-05-02T12:44:38.635Z,38.06
2023-05-02T12:47:13.117Z,42.94
2023-05-02T12:49:54.810Z,42.65
2023-05-02T12:52:48.924Z,42.61
2023-05-02T12:55:24.321Z,42.83
2023-05-02T12:58:02.168Z,42.31
2023-05-02T13:00:38.201Z,42.39
2023-05-02T13:03:11.686Z,43.60
2023-05-02T13:05:46.075Z,43.35
2023-05-02T13:08:18.964Z,42.59
2023-05-02T13:10:51.620Z,41.60
2023-05-02T13:13:24.840Z,43.08
2023-05-02T13:15:57.734Z,43.31
2023-05-02T13:18:30.649Z,41.73
2023-05-02T13:21:05.375Z,43.72
2023-05-02T13:23:39.923Z,41.06
2023-05-02T13:26:13.549Z,42.56
2023-05-02T13:28:46.266Z,42.07
2023-05-02T13:31:19.129Z,43.93
2023-05-02T13:33:52.237Z,41.53
2023-05-02T13:36:27.059Z,40.33
2023-05-02T13:38:59.774Z,41.35
2023-05-02T13:41:32.614Z,42.64
2023-05-02T13:44:05.363Z,43.09
2023-05-02T13:46:38.463Z,42.79
2023-05-02T13:49:11.799Z,42.49
2023-05-02T13:51:45.665Z,42.56
2023-05-02T13:54:18.697Z,41.85
2023-05-02T13:56:51.494Z,39.61
2023-05-02T13:59:24.124Z,42.63
2023-05-02T14:01:57.072Z,39.01
2023-05-02T14:04:29.858Z,41.16
2023-05-02T14:07:05.397Z,41.05
2023-05-02T14:09:38.205Z,41.41
2023-05-02T14:12:11.237Z,41.22
2023-05-02T14:14:44.031Z,40.95
2023-05-02T14:17:16.753Z,41.43
2023-05-02T14:19:49.629Z,39.04
2023-05-02T14:22:24.086Z,37.55
2023-05-02T14:24:57.130Z,40.35
2023-05-02T14:27:30.065Z,39.50
2023-05-02T14:30:03.217Z,37.14
2023-05-02T14:32:36.487Z,39.61
2023-05-02T14:35:10.357Z,37.89
2023-05-02T14:37:46.983Z,35.17
2023-05-02T14:40:22.757Z,38.30
2023-05-02T14:42:55.538Z,38.01
2023-05-02T14:45:28.098Z,39.39
2023-05-02T14:48:01.131Z,39.01
2023-05-02T14:50:33.944Z,39.19
2023-05-02T14:53:08.174Z,37.53
2023-05-02T15:04:37.107Z,36.00
2023-05-02T15:07:10.409Z,38.19
2023-05-02T15:09:44.865Z,36.48
2023-05-02T15:12:18.242Z,36.40
2023-05-02T15:14:50.935Z,37.31
2023-05-02T15:17:24.119Z,38.11
2023-05-02T15:19:58.484Z,36.24
2023-05-02T15:22:31.412Z,35.79
2023-05-02T15:25:06.355Z,36.69
2023-05-02T15:27:39.080Z,35.62
2023-05-02T15:30:12.064Z,35.89
2023-05-02T15:32:44.826Z,35.85
2023-05-02T15:35:17.989Z,36.34
2023-05-02T15:37:50.718Z,35.67
2023-05-02T15:40:25.992Z,36.11
2023-05-02T15:42:58.766Z,35.59
2023-05-02T15:45:31.724Z,35.54
2023-05-02T15:48:04.839Z,35.21
2023-05-02T15:50:37.716Z,37.14
2023-05-02T15:53:10.516Z,36.40
2023-05-02T15:55:46.038Z,35.84
2023-05-02T15:58:19.756Z,36.28
2023-05-02T16:00:52.981Z,35.29
2023-05-02T16:03:25.906Z,35.54
2023-05-02T16:05:59.508Z,35.17
2023-05-02T16:08:32.494Z,35.49
2023-05-02T16:11:06.767Z,37.08
2023-05-02T16:13:40.377Z,36.00
2023-05-02T16:16:13.757Z,36.24
2023-05-02T16:18:49.660Z,36.52
2023-05-02T16:21:22.664Z,35.66
2023-05-02T16:23:55.486Z,36.39
2023-05-02T16:26:30.312Z,36.59
2023-05-02T16:29:03.820Z,36.48
2023-05-02T16:31:36.875Z,36.55
2023-05-02T16:34:32.691Z,36.91
2023-05-02T16:37:05.829Z,36.90
2023-05-02T16:39:39.964Z,37.25
2023-05-02T16:42:14.184Z,37.19
2023-05-02T16:44:47.047Z,36.89
2023-05-02T16:47:19.829Z,37.54
2023-05-02T16:49:56.068Z,37.93
2023-05-02T16:52:29.614Z,37.92
2023-05-02T16:55:03.733Z,38.14
2023-05-02T16:57:39.251Z,37.81
2023-05-02T17:00:19.058Z,38.43
2023-05-02T17:02:55.071Z,38.32
2023-05-02T17:05:28.094Z,38.71
2023-05-02T17:08:03.287Z,38.82
2023-05-02T17:10:36.087Z,38.59
2023-05-02T17:13:10.220Z,38.57
2023-05-02T17:15:43.550Z,38.29
2023-05-02T17:18:17.037Z,38.52
2023-05-02T17:20:49.865Z,38.20
2023-05-02T17:23:23.083Z,38.72
2023-05-02T17:25:56.082Z,38.81
2023-05-02T17:28:30.459Z,38.89
2023-05-02T17:31:03.375Z,39.19
2023-05-02T17:33:36.047Z,39.03
2023-05-02T17:36:09.391Z,39.00
2023-05-02T17:38:43.838Z,39.22
2023-05-02T17:41:16.646Z,38.58
2023-05-02T17:43:53.146Z,39.15
2023-05-02T17:46:25.917Z,39.24
2023-05-02T17:48:58.753Z,39.42
2023-05-02T17:51:32.265Z,39.64
2023-05-02T17:54:05.282Z,39.34
2023-05-02T17:56:38.150Z,39.54
2023-05-02T17:59:12.505Z,39.54
2023-05-02T18:01:45.431Z,39.67
2023-05-02T18:04:19.273Z,39.96
2023-05-02T18:06:52.233Z,39.83
2023-05-02T18:09:27.942Z,39.87
2023-05-02T18:12:04.284Z,40.10
2023-05-02T18:14:58.664Z,40.26
2023-05-02T18:20:33.183Z,39.97
2023-05-02T18:23:11.629Z,40.04
2023-05-02T18:26:01.299Z,40.55
2023-05-02T18:28:35.337Z,40.17
2023-05-02T18:31:37.473Z,40.40
2023-05-02T18:34:11.265Z,40.44
2023-05-02T18:36:49.139Z,40.37
2023-05-02T18:39:21.856Z,41.16
2023-05-02T18:41:54.658Z,40.71
2023-05-02T18:44:27.974Z,41.28
2023-05-02T18:47:02.140Z,40.72
2023-05-02T18:49:35.107Z,41.31
2023-05-02T18:52:08.033Z,41.05
2023-05-02T18:54:43.934Z,41.22
2023-05-02T18:57:16.891Z,40.88
2023-05-02T18:59:50.069Z,41.83
2023-05-02T19:02:24.878Z,41.67
2023-05-02T19:05:02.394Z,42.25
2023-05-02T19:07:42.557Z,41.75
2023-05-02T19:10:34.088Z,42.40
2023-05-02T19:13:08.714Z,42.05
2023-05-02T19:15:47.639Z,42.39
2023-05-02T19:18:30.497Z,42.16
2023-05-02T19:21:24.702Z,42.40
2023-05-02T19:24:00.630Z,42.15
2023-05-02T19:26:42.134Z,42.89
2023-05-02T19:29:40.833Z,42.69
2023-05-02T19:32:23.422Z,42.54
2023-05-02T19:35:17.685Z,42.18
2023-05-02T19:37:52.338Z,42.33
2023-05-02T19:40:25.264Z,42.87
2023-05-02T19:43:02.450Z,43.30
2023-05-02T19:45:53.603Z,43.02
2023-05-02T19:48:42.483Z,43.10
2023-05-02T19:51:34.073Z,43.12
2023-05-02T19:54:16.002Z,43.52
2023-05-02T19:57:02.537Z,43.14
2023-05-02T19:59:37.984Z,43.49
2023-05-02T20:07:12.941Z,43.72
2023-05-02T20:10:37.461Z,44.08
2023-05-02T20:14:08.643Z,44.01
2023-05-02T20:16:45.963Z,43.87
2023-05-02T20:19:20.008Z,44.40
2023-05-02T20:21:56.393Z,44.42
2023-05-02T20:24:29.174Z,44.47
2023-05-02T20:27:02.660Z,44.72
2023-05-02T20:29:35.495Z,45.17
2023-05-02T20:32:08.384Z,45.13
2023-05-02T20:34:41.375Z,45.44
2023-05-02T20:43:31.479Z,45.31
2023-05-02T20:46:10.082Z,45.37
2023-05-02T20:48:43.540Z,46.03
2023-05-02T20:51:16.715Z,45.95
2023-05-02T20:53:49.554Z,45.98
2023-05-02T20:56:22.553Z,46.13
2023-05-02T20:58:57.200Z,46.48
2023-05-02T21:01:30.005Z,46.16
2023-05-02T21:04:03.443Z,46.08
2023-05-02T21:09:29.613Z,46.36
2023-05-02T21:12:02.632Z,46.10
2023-05-02T21:14:36.710Z,46.83
2023-05-02T21:17:09.562Z,46.39
2023-05-02T21:19:42.740Z,46.39
2023-05-02T21:22:15.951Z,46.66
2023-05-02T21:24:50.311Z,46.88
2023-05-02T21:27:24.157Z,47.08
2023-05-02T21:29:58.268Z,46.75
2023-05-02T21:32:31.828Z,47.00
2023-05-02T21:35:05.120Z,47.00
2023-05-02T21:37:38.271Z,47.17
2023-05-02T21:40:13.241Z,47.25
2023-05-02T21:42:46.251Z,47.13
2023-05-02T21:45:20.572Z,47.28
2023-05-02T21:47:54.201Z,47.35
2023-05-02T21:50:40.278Z,47.53
2023-05-02T21:53:14.223Z,47.68
2023-05-02T21:55:47.200Z,47.78
2023-05-02T21:58:19.780Z,47.66
2023-05-02T22:00:54.188Z,48.06
2023-05-02T22:03:30.304Z,47.93
2023-05-02T22:06:06.830Z,48.05
2023-05-02T22:08:40.221Z,47.60
2023-05-02T22:11:13.107Z,48.34
2023-05-02T22:13:45.988Z,48.20
2023-05-02T22:16:21.630Z,48.46
2023-05-02T22:18:54.518Z,48.10
2023-05-02T22:21:27.491Z,48.45
2023-05-02T22:24:00.793Z,48.16
2023-05-02T22:26:33.884Z,48.67
2023-05-02T22:29:06.822Z,48.24
2023-05-02T22:31:42.280Z,48.78
2023-05-02T22:34:15.879Z,48.78
2023-05-02T22:36:48.780Z,49.10
2023-05-02T22:39:21.757Z,48.91
2023-05-02T22:41:54.505Z,49.25
2023-05-02T22:44:27.458Z,48.57
2023-05-02T22:47:01.720Z,48.89
2023-05-02T22:49:34.671Z,48.89
2023-05-02T22:52:10.303Z,48.86
2023-05-02T22:54:43.159Z,48.95
2023-05-02T22:57:16.114Z,49.16
2023-05-02T22:59:48.953Z,49.20
2023-05-02T23:02:23.208Z,48.98
2023-05-02T23:04:56.359Z,49.17
2023-05-02T23:07:29.125Z,49.21
2023-05-02T23:10:06.140Z,49.90
2023-05-02T23:12:39.542Z,49.28
2023-05-02T23:15:13.147Z,49.71
2023-05-02T23:17:47.516Z,49.37
2023-05-02T23:20:22.811Z,49.63
2023-05-02T23:22:56.327Z,49.77
2023-05-02T23:25:29.126Z,50.18
2023-05-02T23:28:02.524Z,50.09
2023-05-02T23:30:35.706Z,49.98
2023-05-02T23:33:10.419Z,50.38
2023-05-02T23:35:43.530Z,49.87
2023-05-02T23:38:16.254Z,49.81
2023-05-02T23:40:49.178Z,50.28
2023-05-02T23:43:21.932Z,49.97
2023-05-02T23:45:54.839Z,49.74
2023-05-02T23:48:28.944Z,50.33
2023-05-02T23:51:02.137Z,49.91
2023-05-02T23:53:34.943Z,50.08
2023-05-02T23:56:08.421Z,49.88
2023-05-02T23:58:41.310Z,50.07
